Aérodrome :
LOGIN :

S'inscrire | Disclaimer

   EN    FR    IT 

 










Légende :    VFR   VFR Marginal   IFR   IFR Intensif   IFR Très Intensif
Visi : 
Plafond : 
>= 8 km
>= 3000ft
5 à 8 km
1000 à 3000 ft
1500m à 5 km
500 à 1000 ft
800 à 1500m
200 à 500 ft
< 800m
< 200 ft
Symboles :   Orages  Brouillard  Fortes neiges  Fortes précipitations  Vent > 20 kt
SIGMETs :   Divers  Orages  Givrage  Turbulence  Onde Orograph.  Cendres Volcan.







- Altitude de l'aérodrome : 53 ft
- Code IATA : HAM


EDDH - Hamburg

DERNIER METAR :
  • 161520Z 25009KT 9999 -SHRA SCT008 BKN022 03/01 Q0987 TEMPO 28015G25KT 4000 BKN014CB

METARs EXPIRÉS :
  • 161450Z 26011KT 9999 -SHRA SCT008 BKN010 SCT015CB 03/01 Q0987 TEMPO 28015G25KT 4000 SHRA
  • 161420Z 25009KT 9999 -SHRA FEW008 BKN010CB 03/01 Q0987 TEMPO 29015G25KT 4000 SHRA
  • 161350Z 28008G18KT 4500 -SHRA FEW005 BKN012CB BKN020 02/01 Q0986 TEMPO 29015G25KT SHRA
  • 161320Z 23010KT 9999 -SHRA SCT014CB BKN023 05/02 Q0986 TEMPO 24015G25KT 4000 SHRA BKN012CB
  • 161250Z 23010KT 9999 SCT012 BKN019 04/02 Q0986 TEMPO 24015G25KT 4000 SHRA BKN012CB

TAF TAF EDDH
Valide du 16 à 12h jusqu'au 17 à 18h UTC


161100Z 1612/1718 24010KT 9999 FEW010 SCT015
TEMPO 1612/1616 24015G25KT SHRA BKN007CB
PROB30
TEMPO 1612/1616 3000 TSRAGS
TEMPO 1616/1622 2500 SHRASN BKN007CB
PROB30
TEMPO 1622/1718 2000 SHSN BKN007CB
TEMPO 1710/1716 26015G25KT
Pas de NOTAMs connus pour ce terrain.



MET'MAP, la Météo Aéronautique d'un coup d'oeil ! - Copyright ORBIFLY Décembre 2007 - Disclaimer

ORBIFLY MET'MAP TEAM :

Programmation & Développement : Alexandra Zaïnal
Conception & Développement : Baudouin d'Aumeries
Co-Programmation & Développement : Marc-Olivier Méhu
Soutien technique & logistique : Manuel Goepfert

Contact : metmap@orbifly.com




SOURCES & CREDITS :

   NOAA